createdAt,value
2018-12-29T00:01:33.145Z,16.67
2018-12-29T00:04:02.419Z,21.23
2018-12-29T00:06:32.996Z,12.55
2018-12-29T00:09:04.544Z,20.10
2018-12-29T00:11:35.145Z,18.45
2018-12-29T00:14:04.441Z,16.55
2018-12-29T00:16:33.956Z,19.23
2018-12-29T00:19:03.156Z,16.32
2018-12-29T00:21:33.317Z,14.40
2018-12-29T00:24:03.284Z,14.70
2018-12-29T00:26:33.544Z,12.68
2018-12-29T00:29:03.527Z,16.15
2018-12-29T00:31:33.485Z,14.65
2018-12-29T00:34:03.468Z,14.05
2018-12-29T00:36:33.325Z,15.43
2018-12-29T00:39:03.504Z,13.90
2018-12-29T00:41:33.449Z,13.88
2018-12-29T00:44:03.419Z,13.78
2018-12-29T00:46:33.458Z,16.13
2018-12-29T00:49:03.454Z,15.03
2018-12-29T00:51:33.412Z,13.80
2018-12-29T00:54:03.596Z,14.25
2018-12-29T00:56:33.657Z,15.90
2018-12-29T00:59:03.730Z,13.70
2018-12-29T01:01:33.781Z,15.83
2018-12-29T01:04:03.857Z,16.97
2018-12-29T01:06:33.805Z,14.00
2018-12-29T01:09:05.525Z,14.47
2018-12-29T01:11:35.594Z,15.95
2018-12-29T01:14:06.691Z,12.07
2018-12-29T01:16:36.961Z,10.90
2018-12-29T01:19:06.928Z,12.75
2018-12-29T01:21:37.017Z,18.33
2018-12-29T01:24:06.963Z,15.38
2018-12-29T01:26:36.977Z,17.45
2018-12-29T01:29:07.037Z,16.90
2018-12-29T01:31:37.134Z,11.68
2018-12-29T01:34:07.079Z,14.70
2018-12-29T01:36:37.154Z,17.37
2018-12-29T01:39:07.920Z,14.47
2018-12-29T01:41:37.913Z,13.22
2018-12-29T01:44:08.049Z,17.27
2018-12-29T01:46:37.924Z,17.67
2018-12-29T01:49:07.877Z,18.30
2018-12-29T01:51:37.659Z,12.85
2018-12-29T01:54:07.375Z,16.75
2018-12-29T01:56:37.340Z,14.75
2018-12-29T01:59:07.404Z,17.12
2018-12-29T02:01:37.595Z,16.75
2018-12-29T02:04:07.748Z,12.47
2018-12-29T02:06:37.818Z,12.07
2018-12-29T02:09:08.096Z,12.15
2018-12-29T02:11:38.444Z,17.85
2018-12-29T02:14:08.645Z,12.18
2018-12-29T02:16:38.711Z,17.35
2018-12-29T02:19:08.876Z,13.48
2018-12-29T02:21:39.257Z,19.83
2018-12-29T02:24:09.416Z,16.95
2018-12-29T02:26:39.396Z,14.85
2018-12-29T02:29:09.449Z,15.68
2018-12-29T02:31:39.635Z,16.85
2018-12-29T02:34:09.889Z,14.73
2018-12-29T02:36:40.104Z,19.07
2018-12-29T02:39:10.148Z,15.95
2018-12-29T02:41:40.213Z,13.93
2018-12-29T02:44:10.689Z,15.18
2018-12-29T02:46:40.871Z,13.70
2018-12-29T02:49:11.690Z,15.83
2018-12-29T02:51:41.696Z,13.38
2018-12-29T02:54:11.839Z,11.95
2018-12-29T02:56:41.989Z,14.87
2018-12-29T02:59:12.070Z,11.83
2018-12-29T03:01:42.009Z,12.03
2018-12-29T03:04:12.201Z,12.20
2018-12-29T03:06:42.152Z,15.78
2018-12-29T03:09:12.340Z,18.42
2018-12-29T03:11:42.281Z,13.10
2018-12-29T03:14:12.077Z,13.72
2018-12-29T03:16:42.120Z,12.93
2018-12-29T03:19:12.113Z,12.17
2018-12-29T03:21:42.556Z,14.58
2018-12-29T03:24:12.644Z,12.58
2018-12-29T03:26:42.695Z,12.60
2018-12-29T03:29:12.777Z,13.20
2018-12-29T03:31:42.859Z,15.53
2018-12-29T03:34:12.909Z,12.45
2018-12-29T03:36:42.874Z,13.20
2018-12-29T03:39:13.299Z,12.20
2018-12-29T03:41:43.418Z,13.58
2018-12-29T03:44:13.384Z,12.28
2018-12-29T03:46:43.451Z,11.85
2018-12-29T03:49:13.533Z,13.28
2018-12-29T03:51:43.468Z,12.78
2018-12-29T03:54:13.457Z,15.43
2018-12-29T03:56:43.608Z,12.43
2018-12-29T03:59:13.815Z,14.85
2018-12-29T04:01:44.148Z,15.18
2018-12-29T04:04:14.349Z,16.93
2018-12-29T04:06:44.390Z,14.53
2018-12-29T04:09:33.137Z,13.95
2018-12-29T04:12:23.957Z,17.92
2018-12-29T04:14:54.035Z,18.42
2018-12-29T04:17:23.993Z,14.35
2018-12-29T04:19:54.180Z,14.60
2018-12-29T04:22:24.218Z,12.07
2018-12-29T04:24:54.424Z,16.60
2018-12-29T04:27:24.405Z,11.53
2018-12-29T04:29:54.448Z,13.40
2018-12-29T04:32:25.366Z,19.85
2018-12-29T04:34:55.585Z,13.88
2018-12-29T04:37:25.716Z,11.40
2018-12-29T04:39:55.876Z,17.75
2018-12-29T04:42:26.078Z,15.80
2018-12-29T04:44:56.117Z,15.03
2018-12-29T04:47:27.920Z,19.00
2018-12-29T04:49:58.346Z,12.43
2018-12-29T04:52:28.800Z,13.32
2018-12-29T04:54:58.969Z,16.03
2018-12-29T04:57:29.030Z,17.23
2018-12-29T04:59:59.083Z,16.77
2018-12-29T05:02:28.436Z,15.28
2018-12-29T05:04:57.840Z,15.55
2018-12-29T05:07:27.065Z,15.58
2018-12-29T05:09:58.695Z,18.57
2018-12-29T05:12:28.124Z,14.38
2018-12-29T05:14:58.262Z,19.57
2018-12-29T05:17:28.336Z,15.80
2018-12-29T05:19:58.601Z,14.73
2018-12-29T05:22:28.688Z,11.37
2018-12-29T05:24:58.699Z,13.95
2018-12-29T05:27:28.718Z,13.97
2018-12-29T05:29:57.969Z,18.42
2018-12-29T05:32:27.200Z,15.80
2018-12-29T05:34:56.605Z,15.87
2018-12-29T05:37:25.833Z,11.80
2018-12-29T05:39:55.964Z,17.25
2018-12-29T05:42:26.036Z,13.22
2018-12-29T05:44:56.396Z,15.48
2018-12-29T05:47:26.282Z,12.37
2018-12-29T05:49:56.204Z,12.00
2018-12-29T05:52:26.258Z,13.05
2018-12-29T05:54:56.325Z,14.68
2018-12-29T05:57:26.389Z,12.30
2018-12-29T05:59:56.529Z,12.45
2018-12-29T06:02:27.498Z,12.68
2018-12-29T06:04:57.313Z,16.27
2018-12-29T06:07:27.477Z,16.12
2018-12-29T06:09:58.152Z,12.85
2018-12-29T06:12:28.477Z,11.75
2018-12-29T06:14:58.504Z,12.58
2018-12-29T06:17:28.367Z,16.23
2018-12-29T06:19:58.545Z,15.18
2018-12-29T06:22:28.692Z,14.93
2018-12-29T06:24:58.684Z,17.07
2018-12-29T06:27:28.725Z,16.10
2018-12-29T06:29:58.926Z,17.35
2018-12-29T06:32:29.085Z,14.93
2018-12-29T06:34:59.853Z,13.00
2018-12-29T06:37:29.929Z,17.50
2018-12-29T06:40:00.001Z,14.25
2018-12-29T06:42:30.161Z,15.45
2018-12-29T06:45:00.038Z,14.83
2018-12-29T06:47:30.089Z,15.95
2018-12-29T06:50:00.255Z,17.52
2018-12-29T06:52:30.325Z,14.40
2018-12-29T06:55:00.308Z,14.37
2018-12-29T06:57:30.356Z,15.48
2018-12-29T07:00:00.329Z,13.73
2018-12-29T07:02:30.405Z,19.45
2018-12-29T07:05:00.497Z,16.23
2018-12-29T07:07:30.601Z,13.45
2018-12-29T07:10:00.665Z,17.87
2018-12-29T07:12:30.815Z,19.00
2018-12-29T07:15:00.894Z,16.00
2018-12-29T07:17:30.877Z,15.13
2018-12-29T07:20:00.084Z,19.20
2018-12-29T07:22:30.171Z,17.40
2018-12-29T07:25:00.233Z,12.33
2018-12-29T07:27:30.341Z,12.80
2018-12-29T07:30:00.367Z,13.60
2018-12-29T07:32:30.360Z,11.80
2018-12-29T07:35:00.510Z,13.05
2018-12-29T07:37:30.569Z,12.90
2018-12-29T07:40:00.536Z,15.80
2018-12-29T07:42:30.529Z,11.90
2018-12-29T07:45:00.504Z,17.12
2018-12-29T07:47:30.549Z,11.93
2018-12-29T07:50:00.608Z,10.68
2018-12-29T07:52:30.590Z,18.32
2018-12-29T07:55:00.812Z,17.25
2018-12-29T07:57:31.087Z,18.57
2018-12-29T08:00:01.244Z,11.15
2018-12-29T08:02:31.449Z,15.48
2018-12-29T08:05:03.540Z,15.80
2018-12-29T08:07:33.607Z,18.17
2018-12-29T08:10:03.808Z,15.32
2018-12-29T08:12:34.790Z,15.93
2018-12-29T08:15:05.072Z,14.13
2018-12-29T08:17:35.138Z,18.53
2018-12-29T08:20:05.328Z,16.15
2018-12-29T08:22:35.279Z,13.78
2018-12-29T08:25:05.697Z,16.45
2018-12-29T08:27:35.827Z,13.80
2018-12-29T08:30:06.307Z,12.63
2018-12-29T08:32:36.258Z,21.40
2018-12-29T08:35:06.577Z,18.12
2018-12-29T08:37:36.690Z,12.05
2018-12-29T08:40:06.809Z,16.60
2018-12-29T08:42:36.837Z,14.65
2018-12-29T08:45:06.797Z,18.70
2018-12-29T08:47:36.864Z,13.00
2018-12-29T08:50:13.051Z,18.52
2018-12-29T08:52:38.754Z,19.80
2018-12-29T08:55:08.821Z,13.78
2018-12-29T08:57:38.883Z,15.10
2018-12-29T09:00:08.872Z,17.90
2018-12-29T09:02:39.005Z,11.87
2018-12-29T09:05:09.010Z,18.05
2018-12-29T09:07:39.084Z,18.92
2018-12-29T09:10:09.058Z,9.88
2018-12-29T09:12:39.164Z,15.38
2018-12-29T09:15:09.293Z,20.65
2018-12-29T09:17:38.568Z,15.63
2018-12-29T09:20:08.720Z,16.47
2018-12-29T09:22:38.906Z,11.95
2018-12-29T09:25:08.863Z,10.93
2018-12-29T09:27:38.926Z,11.38
2018-12-29T09:30:09.231Z,18.67
2018-12-29T09:32:39.268Z,16.00
2018-12-29T09:35:09.316Z,17.20
2018-12-29T09:37:39.417Z,16.57
2018-12-29T09:40:10.165Z,15.32
2018-12-29T09:42:40.161Z,17.92
2018-12-29T09:45:10.208Z,17.55
2018-12-29T09:47:40.093Z,17.02
2018-12-29T09:50:10.145Z,15.93
2018-12-29T09:52:40.530Z,16.52
2018-12-29T09:55:10.473Z,16.70
2018-12-29T09:57:40.595Z,19.10
2018-12-29T10:00:11.892Z,19.12
2018-12-29T10:02:41.925Z,18.23
2018-12-29T10:05:11.872Z,22.32
2018-12-29T10:07:41.953Z,17.65
2018-12-29T10:10:11.997Z,17.07
2018-12-29T10:12:42.098Z,15.38
2018-12-29T10:15:12.159Z,16.67
2018-12-29T10:17:42.128Z,15.03
2018-12-29T10:20:12.438Z,14.87
2018-12-29T10:22:42.468Z,15.05
2018-12-29T10:25:12.678Z,17.47
2018-12-29T10:27:42.804Z,16.30
2018-12-29T10:30:13.089Z,13.80
2018-12-29T10:32:43.154Z,18.57
2018-12-29T10:35:13.412Z,13.58
2018-12-29T10:37:43.479Z,17.17
2018-12-29T10:40:15.121Z,16.10
2018-12-29T10:42:45.177Z,17.27
2018-12-29T10:45:15.332Z,12.35
2018-12-29T10:47:45.401Z,12.68
2018-12-29T10:50:15.448Z,15.68
2018-12-29T10:52:45.530Z,16.77
2018-12-29T10:55:16.484Z,18.15
2018-12-29T10:57:46.519Z,15.27
2018-12-29T11:00:16.688Z,20.57
2018-12-29T11:02:46.776Z,20.05
2018-12-29T11:05:17.258Z,33.98
2018-12-29T11:07:47.316Z,20.05
2018-12-29T11:10:17.392Z,18.02
2018-12-29T11:12:47.546Z,20.32
2018-12-29T11:15:17.726Z,19.05
2018-12-29T11:17:47.810Z,22.33
2018-12-29T11:20:19.207Z,19.12
2018-12-29T11:22:49.353Z,14.80
2018-12-29T11:25:19.441Z,19.10
2018-12-29T11:27:49.496Z,17.50
2018-12-29T11:30:19.469Z,22.47
2018-12-29T11:32:49.719Z,20.55
2018-12-29T11:35:19.827Z,14.13
2018-12-29T11:37:49.757Z,18.73
2018-12-29T11:40:20.333Z,22.58
2018-12-29T11:42:50.428Z,20.17
2018-12-29T11:45:20.484Z,21.52
2018-12-29T11:47:50.545Z,21.77
2018-12-29T11:50:20.632Z,22.43
2018-12-29T11:52:50.591Z,22.85
2018-12-29T11:55:20.557Z,18.43
2018-12-29T11:57:50.713Z,17.95
2018-12-29T12:00:20.688Z,13.83
2018-12-29T12:02:50.840Z,16.55
2018-12-29T12:05:21.025Z,18.17
2018-12-29T12:07:51.188Z,12.63
2018-12-29T12:10:21.400Z,17.75
2018-12-29T12:12:52.390Z,15.97
2018-12-29T12:15:22.578Z,21.42
2018-12-29T12:17:57.548Z,19.48
2018-12-29T12:20:24.588Z,18.07
2018-12-29T12:22:54.545Z,16.53
2018-12-29T12:25:25.866Z,18.35
2018-12-29T12:27:56.394Z,14.38
2018-12-29T12:30:26.557Z,15.98
2018-12-29T12:32:56.322Z,20.02
2018-12-29T12:35:26.596Z,18.85
2018-12-29T12:37:56.781Z,17.67
2018-12-29T12:40:26.817Z,17.65
2018-12-29T12:42:57.096Z,20.32
2018-12-29T12:45:27.077Z,19.00
2018-12-29T12:47:57.253Z,18.52
2018-12-29T12:50:29.025Z,16.27
2018-12-29T12:52:59.120Z,19.47
2018-12-29T12:55:29.176Z,17.75
2018-12-29T12:57:59.366Z,14.35
2018-12-29T13:00:29.729Z,14.20
2018-12-29T13:03:00.691Z,15.70
2018-12-29T13:05:30.797Z,15.20
2018-12-29T13:08:00.956Z,19.05
2018-12-29T13:10:31.025Z,17.50
2018-12-29T13:13:01.102Z,17.57
2018-12-29T13:15:31.262Z,19.60
2018-12-29T13:18:01.352Z,17.57
2018-12-29T13:20:31.406Z,17.17
2018-12-29T13:23:01.536Z,18.47
2018-12-29T13:25:31.689Z,16.73
2018-12-29T13:28:01.857Z,19.02
2018-12-29T13:30:32.029Z,19.27
2018-12-29T13:33:02.292Z,20.08
2018-12-29T13:35:32.306Z,20.15
2018-12-29T13:38:02.220Z,17.73
2018-12-29T13:40:33.304Z,15.97
2018-12-29T13:43:03.270Z,17.45
2018-12-29T13:45:33.352Z,17.37
2018-12-29T13:48:03.383Z,14.85
2018-12-29T13:50:33.279Z,17.30
2018-12-29T13:53:03.537Z,14.80
2018-12-29T13:55:33.723Z,16.40
2018-12-29T13:58:03.888Z,16.00
2018-12-29T14:00:33.783Z,16.00
2018-12-29T14:03:05.926Z,16.12
2018-12-29T14:05:38.297Z,16.10
2018-12-29T14:08:10.519Z,16.87
2018-12-29T14:10:40.808Z,15.78
2018-12-29T14:13:11.444Z,13.85
2018-12-29T14:15:42.896Z,15.95
2018-12-29T14:18:13.010Z,17.17
2018-12-29T14:20:43.117Z,14.93
2018-12-29T14:23:13.164Z,16.87
2018-12-29T14:25:43.356Z,16.02
2018-12-29T14:28:13.344Z,16.15
2018-12-29T14:30:43.281Z,13.22
2018-12-29T14:33:13.739Z,13.78
2018-12-29T14:35:43.868Z,13.68
2018-12-29T14:38:13.875Z,14.37
2018-12-29T14:40:44.092Z,14.58
2018-12-29T14:43:13.978Z,14.38
2018-12-29T14:45:43.941Z,13.80
2018-12-29T14:48:13.904Z,14.83
2018-12-29T14:50:43.961Z,14.05
2018-12-29T14:53:14.060Z,11.93
2018-12-29T14:55:44.002Z,12.85
2018-12-29T14:58:14.477Z,15.65
2018-12-29T15:00:44.550Z,13.25
2018-12-29T15:03:14.631Z,14.13
2018-12-29T15:05:44.689Z,14.00
2018-12-29T15:08:16.587Z,13.18
2018-12-29T15:10:46.761Z,13.20
2018-12-29T15:13:17.156Z,13.65
2018-12-29T15:15:47.209Z,12.53
2018-12-29T15:18:17.597Z,14.87
2018-12-29T15:20:47.852Z,14.18
2018-12-29T15:23:18.136Z,11.68
2018-12-29T15:25:48.294Z,12.90
2018-12-29T15:28:18.376Z,12.33
2018-12-29T15:30:48.730Z,10.80
2018-12-29T15:33:18.596Z,14.33
2018-12-29T15:35:48.912Z,13.55
2018-12-29T15:38:18.962Z,11.53
2018-12-29T15:40:49.106Z,13.20
2018-12-29T15:43:18.995Z,13.40
2018-12-29T15:45:49.057Z,13.38
2018-12-29T15:48:19.816Z,13.15
2018-12-29T15:50:49.990Z,13.68
2018-12-29T15:53:20.176Z,12.03
2018-12-29T15:55:50.240Z,11.73
2018-12-29T15:58:20.512Z,11.28
2018-12-29T16:00:50.885Z,12.93
2018-12-29T16:03:21.056Z,13.30
2018-12-29T16:05:51.525Z,13.80
2018-12-29T16:08:21.900Z,13.85
2018-12-29T16:10:51.990Z,15.23
2018-12-29T16:13:22.350Z,14.25
2018-12-29T16:15:52.287Z,14.10
2018-12-29T16:18:22.693Z,11.85
2018-12-29T16:20:54.253Z,12.93
2018-12-29T16:23:26.132Z,13.32
2018-12-29T16:25:56.728Z,14.68
2018-12-29T16:28:26.798Z,13.20
2018-12-29T16:30:57.997Z,15.65
2018-12-29T16:33:28.168Z,13.05
2018-12-29T16:35:58.644Z,12.90
2018-12-29T16:38:28.700Z,12.30
2018-12-29T16:40:58.988Z,14.10
2018-12-29T16:43:29.257Z,14.70
2018-12-29T16:45:59.322Z,12.93
2018-12-29T16:48:29.284Z,11.75
2018-12-29T16:50:59.664Z,10.40
2018-12-29T16:53:29.641Z,14.07
2018-12-29T16:56:00.113Z,12.43
2018-12-29T16:58:30.271Z,10.82
2018-12-29T17:01:00.665Z,12.53
2018-12-29T17:03:30.649Z,14.87
2018-12-29T17:06:02.339Z,13.22
2018-12-29T17:08:32.444Z,14.40
2018-12-29T17:11:02.450Z,13.72
2018-12-29T17:13:32.376Z,13.50
2018-12-29T17:16:02.438Z,14.00
2018-12-29T17:18:32.512Z,14.40
2018-12-29T17:21:03.490Z,14.73
2018-12-29T17:23:33.684Z,13.03
2018-12-29T17:26:03.731Z,15.30
2018-12-29T17:28:34.212Z,14.38
2018-12-29T17:31:04.268Z,12.65
2018-12-29T17:33:34.359Z,11.97
2018-12-29T17:36:04.409Z,12.82
2018-12-29T17:38:34.492Z,13.80
2018-12-29T17:41:04.956Z,12.47
2018-12-29T17:43:34.932Z,16.35
2018-12-29T17:46:05.300Z,13.95
2018-12-29T17:48:35.481Z,16.27
2018-12-29T17:51:05.637Z,17.02
2018-12-29T17:53:36.120Z,15.83
2018-12-29T17:56:05.980Z,14.80
2018-12-29T17:58:36.056Z,14.58
2018-12-29T18:01:06.122Z,15.70
2018-12-29T18:03:36.819Z,16.37
2018-12-29T18:06:07.477Z,19.27
2018-12-29T18:08:37.337Z,15.80
2018-12-29T18:11:07.396Z,16.37
2018-12-29T18:13:37.270Z,18.23
2018-12-29T18:16:07.233Z,12.80
2018-12-29T18:18:37.308Z,17.23
2018-12-29T18:21:07.330Z,18.55
2018-12-29T18:23:37.736Z,22.55
2018-12-29T18:26:07.578Z,17.42
2018-12-29T18:28:37.613Z,17.00
2018-12-29T18:31:07.710Z,15.48
2018-12-29T18:33:37.744Z,14.83
2018-12-29T18:36:07.738Z,17.48
2018-12-29T18:38:38.096Z,17.23
2018-12-29T18:41:08.489Z,16.50
2018-12-29T18:43:38.553Z,12.37
2018-12-29T18:46:10.361Z,15.75
2018-12-29T18:48:40.200Z,16.30
2018-12-29T18:51:10.082Z,16.73
2018-12-29T18:53:40.339Z,17.42
2018-12-29T18:56:10.426Z,15.03
2018-12-29T18:58:40.478Z,16.70
2018-12-29T19:01:10.774Z,15.83
2018-12-29T19:03:40.918Z,14.47
2018-12-29T19:06:11.004Z,16.67
2018-12-29T19:08:41.482Z,16.82
2018-12-29T19:11:11.648Z,15.18
2018-12-29T19:13:41.565Z,16.62
2018-12-29T19:16:11.617Z,16.50
2018-12-29T19:18:42.109Z,19.00
2018-12-29T19:21:13.261Z,19.35
2018-12-29T19:23:43.472Z,18.53
2018-12-29T19:26:13.822Z,17.15
2018-12-29T19:28:44.012Z,16.73
2018-12-29T19:31:14.280Z,16.77
2018-12-29T19:33:44.358Z,14.15
2018-12-29T19:36:14.304Z,17.77
2018-12-29T19:38:44.273Z,18.77
2018-12-29T19:41:14.748Z,19.03
2018-12-29T19:43:45.053Z,17.50
2018-12-29T19:46:15.201Z,16.65
2018-12-29T19:48:45.283Z,15.30
2018-12-29T19:51:15.229Z,18.42
2018-12-29T19:53:45.812Z,17.90
2018-12-29T19:56:15.668Z,18.10
2018-12-29T19:58:45.460Z,18.50
2018-12-29T20:01:15.493Z,18.77
2018-12-29T20:03:45.473Z,15.60
2018-12-29T20:06:15.700Z,17.02
2018-12-29T20:08:47.417Z,18.20
2018-12-29T20:11:17.404Z,17.47
2018-12-29T20:13:47.491Z,16.82
2018-12-29T20:16:17.570Z,18.40
2018-12-29T20:18:48.329Z,19.17
2018-12-29T20:21:18.398Z,17.42
2018-12-29T20:23:48.472Z,18.98
2018-12-29T20:26:18.641Z,18.37
2018-12-29T20:28:48.829Z,17.55
2018-12-29T20:31:18.901Z,16.30
2018-12-29T20:33:49.064Z,16.20
2018-12-29T20:36:19.191Z,16.00
2018-12-29T20:38:49.405Z,15.25
2018-12-29T20:41:20.542Z,15.43
2018-12-29T20:43:51.265Z,15.23
2018-12-29T20:46:21.885Z,14.83
2018-12-29T20:48:52.923Z,13.17
2018-12-29T20:51:23.574Z,16.77
2018-12-29T20:53:53.938Z,15.72
2018-12-29T20:56:24.227Z,15.18
2018-12-29T20:58:54.524Z,16.47
2018-12-29T21:01:25.054Z,13.28
2018-12-29T21:03:56.436Z,16.75
2018-12-29T21:06:26.557Z,13.58
2018-12-29T21:08:56.691Z,14.20
2018-12-29T21:11:26.885Z,13.53
2018-12-29T21:13:57.038Z,14.63
2018-12-29T21:16:27.238Z,12.47
2018-12-29T21:18:57.588Z,13.13
2018-12-29T21:21:27.678Z,11.88
2018-12-29T21:23:58.922Z,12.35
2018-12-29T21:26:29.434Z,11.15
2018-12-29T21:29:00.220Z,10.53
2018-12-29T21:31:30.513Z,10.08
2018-12-29T21:34:00.954Z,10.48
2018-12-29T21:36:31.151Z,10.03
2018-12-29T21:39:03.313Z,9.75
2018-12-29T21:41:33.927Z,10.40
2018-12-29T21:44:04.011Z,9.80
2018-12-29T21:46:34.084Z,10.23
2018-12-29T21:49:04.241Z,10.15
2018-12-29T21:51:35.806Z,9.05
2018-12-29T21:54:06.209Z,9.63
2018-12-29T21:56:36.679Z,9.33
2018-12-29T21:59:06.800Z,9.80
2018-12-29T22:01:36.727Z,8.88
2018-12-29T22:04:06.754Z,10.03
2018-12-29T22:06:37.113Z,8.83
2018-12-29T22:09:07.903Z,10.50
2018-12-29T22:11:38.417Z,11.22
2018-12-29T22:14:08.470Z,10.30
2018-12-29T22:16:38.396Z,9.35
2018-12-29T22:19:08.285Z,9.73
2018-12-29T22:21:38.636Z,9.70
2018-12-29T22:24:08.516Z,9.20
2018-12-29T22:26:38.565Z,10.08
2018-12-29T22:29:08.447Z,9.73
2018-12-29T22:31:38.505Z,10.10
2018-12-29T22:34:08.581Z,9.53
2018-12-29T22:36:39.155Z,10.00
2018-12-29T22:39:09.130Z,10.43
2018-12-29T22:41:39.121Z,9.55
2018-12-29T22:44:09.057Z,8.37
2018-12-29T22:46:39.133Z,8.60
2018-12-29T22:49:09.308Z,10.10
2018-12-29T22:51:39.245Z,10.98
2018-12-29T22:54:09.824Z,8.48
2018-12-29T22:56:39.897Z,8.33
2018-12-29T22:59:10.297Z,8.95
2018-12-29T23:01:40.566Z,9.28
2018-12-29T23:04:10.740Z,9.25
2018-12-29T23:06:40.629Z,9.48
2018-12-29T23:09:11.104Z,10.13
2018-12-29T23:11:41.180Z,10.25
2018-12-29T23:14:11.445Z,9.70
2018-12-29T23:16:42.125Z,8.68
2018-12-29T23:19:12.579Z,9.07
2018-12-29T23:21:42.863Z,9.33
2018-12-29T23:24:14.249Z,9.73
2018-12-29T23:26:44.541Z,9.05
2018-12-29T23:29:14.812Z,8.80
2018-12-29T23:31:47.164Z,8.80
2018-12-29T23:34:17.251Z,9.05
2018-12-29T23:36:47.563Z,10.35
2018-12-29T23:39:18.157Z,9.63
2018-12-29T23:41:48.652Z,10.23
2018-12-29T23:44:18.902Z,9.15
2018-12-29T23:46:49.011Z,8.98
2018-12-29T23:49:19.060Z,10.40
2018-12-29T23:51:49.528Z,10.30
2018-12-29T23:54:20.401Z,10.88
2018-12-29T23:56:50.908Z,10.80
2018-12-29T23:59:21.152Z,9.20
